sensor_id;sensor_type;location;lat;lon;timestamp;temperature;humidity
10492;DHT22;5293;51.464;-2.566;2022-09-30T00:01:41;10.60;99.90
10492;DHT22;5293;51.464;-2.566;2022-09-30T00:04:12;10.60;99.90
10492;DHT22;5293;51.464;-2.566;2022-09-30T00:06:37;10.60;99.90
10492;DHT22;5293;51.464;-2.566;2022-09-30T00:09:04;10.60;99.90
10492;DHT22;5293;51.464;-2.566;2022-09-30T00:11:32;10.50;99.90
10492;DHT22;5293;51.464;-2.566;2022-09-30T00:13:59;10.50;99.90
10492;DHT22;5293;51.464;-2.566;2022-09-30T00:16:28;10.40;99.90
10492;DHT22;5293;51.464;-2.566;2022-09-30T00:18:55;10.50;99.90
10492;DHT22;5293;51.464;-2.566;2022-09-30T00:21:22;10.50;99.90
10492;DHT22;5293;51.464;-2.566;2022-09-30T00:23:48;10.50;99.90
10492;DHT22;5293;51.464;-2.566;2022-09-30T00:26:17;10.50;99.90
10492;DHT22;5293;51.464;-2.566;2022-09-30T00:28:43;10.50;99.90
10492;DHT22;5293;51.464;-2.566;2022-09-30T00:31:14;10.40;99.90
10492;DHT22;5293;51.464;-2.566;2022-09-30T00:33:41;10.40;99.90
10492;DHT22;5293;51.464;-2.566;2022-09-30T00:36:07;10.40;99.90
10492;DHT22;5293;51.464;-2.566;2022-09-30T00:38:33;10.40;99.90
10492;DHT22;5293;51.464;-2.566;2022-09-30T00:41:00;10.30;99.90
10492;DHT22;5293;51.464;-2.566;2022-09-30T00:43:48;10.30;99.90
10492;DHT22;5293;51.464;-2.566;2022-09-30T00:46:47;10.20;99.90
10492;DHT22;5293;51.464;-2.566;2022-09-30T00:49:17;10.20;99.90
10492;DHT22;5293;51.464;-2.566;2022-09-30T00:51:49;10.20;99.90
10492;DHT22;5293;51.464;-2.566;2022-09-30T00:54:24;10.20;99.90
10492;DHT22;5293;51.464;-2.566;2022-09-30T00:56:58;10.20;99.90
10492;DHT22;5293;51.464;-2.566;2022-09-30T00:59:29;10.20;99.90
10492;DHT22;5293;51.464;-2.566;2022-09-30T01:01:58;10.10;99.90
10492;DHT22;5293;51.464;-2.566;2022-09-30T01:04:27;10.00;99.90
10492;DHT22;5293;51.464;-2.566;2022-09-30T01:06:54;10.00;99.90
10492;DHT22;5293;51.464;-2.566;2022-09-30T01:09:20;10.00;99.90
10492;DHT22;5293;51.464;-2.566;2022-09-30T01:11:46;10.10;99.90
10492;DHT22;5293;51.464;-2.566;2022-09-30T01:14:17;10.10;99.90
10492;DHT22;5293;51.464;-2.566;2022-09-30T01:17:14;10.10;99.90
10492;DHT22;5293;51.464;-2.566;2022-09-30T01:20:11;10.20;99.90
10492;DHT22;5293;51.464;-2.566;2022-09-30T01:28:29;10.10;99.90
10492;DHT22;5293;51.464;-2.566;2022-09-30T01:41:43;10.00;99.90
10492;DHT22;5293;51.464;-2.566;2022-09-30T01:44:51;10.00;99.90
10492;DHT22;5293;51.464;-2.566;2022-09-30T01:50:20;10.00;99.90
10492;DHT22;5293;51.464;-2.566;2022-09-30T01:56:10;10.00;99.90
10492;DHT22;5293;51.464;-2.566;2022-09-30T01:58:44;10.00;99.90
10492;DHT22;5293;51.464;-2.566;2022-09-30T02:01:25;10.00;99.90
10492;DHT22;5293;51.464;-2.566;2022-09-30T02:03:55;9.90;99.90
10492;DHT22;5293;51.464;-2.566;2022-09-30T02:06:26;9.90;99.90
10492;DHT22;5293;51.464;-2.566;2022-09-30T02:09:03;9.80;99.90
10492;DHT22;5293;51.464;-2.566;2022-09-30T02:11:32;9.80;99.90
10492;DHT22;5293;51.464;-2.566;2022-09-30T02:14:16;9.60;99.90
10492;DHT22;5293;51.464;-2.566;2022-09-30T02:16:46;9.50;99.90
10492;DHT22;5293;51.464;-2.566;2022-09-30T02:19:24;9.50;99.90
10492;DHT22;5293;51.464;-2.566;2022-09-30T02:22:18;9.60;99.90
10492;DHT22;5293;51.464;-2.566;2022-09-30T02:24:47;9.60;99.90
10492;DHT22;5293;51.464;-2.566;2022-09-30T02:27:24;9.70;99.90
10492;DHT22;5293;51.464;-2.566;2022-09-30T02:29:55;9.70;99.90
10492;DHT22;5293;51.464;-2.566;2022-09-30T02:32:34;9.70;99.90
10492;DHT22;5293;51.464;-2.566;2022-09-30T02:35:09;9.60;99.90
10492;DHT22;5293;51.464;-2.566;2022-09-30T02:37:53;9.60;99.90
10492;DHT22;5293;51.464;-2.566;2022-09-30T02:42:51;9.50;99.90
10492;DHT22;5293;51.464;-2.566;2022-09-30T02:45:20;9.50;99.90
10492;DHT22;5293;51.464;-2.566;2022-09-30T02:50:50;9.40;99.90
10492;DHT22;5293;51.464;-2.566;2022-09-30T02:58:37;9.40;99.90
10492;DHT22;5293;51.464;-2.566;2022-09-30T03:01:09;9.30;99.90
10492;DHT22;5293;51.464;-2.566;2022-09-30T03:06:11;9.30;99.90
10492;DHT22;5293;51.464;-2.566;2022-09-30T03:08:37;9.30;99.90
10492;DHT22;5293;51.464;-2.566;2022-09-30T03:11:03;9.30;99.90
10492;DHT22;5293;51.464;-2.566;2022-09-30T03:14:01;9.30;99.90
10492;DHT22;5293;51.464;-2.566;2022-09-30T03:19:40;9.20;99.90
10492;DHT22;5293;51.464;-2.566;2022-09-30T03:30:33;9.00;99.90
10492;DHT22;5293;51.464;-2.566;2022-09-30T03:33:18;9.00;99.90
10492;DHT22;5293;51.464;-2.566;2022-09-30T03:35:59;9.00;99.90
10492;DHT22;5293;51.464;-2.566;2022-09-30T03:43:45;9.00;99.90
10492;DHT22;5293;51.464;-2.566;2022-09-30T03:49:02;8.90;99.90
10492;DHT22;5293;51.464;-2.566;2022-09-30T03:51:30;8.90;99.90
10492;DHT22;5293;51.464;-2.566;2022-09-30T03:53:57;8.90;99.90
10492;DHT22;5293;51.464;-2.566;2022-09-30T03:56:29;8.90;99.90
10492;DHT22;5293;51.464;-2.566;2022-09-30T03:58:56;8.80;99.90
10492;DHT22;5293;51.464;-2.566;2022-09-30T04:01:23;8.80;99.90
10492;DHT22;5293;51.464;-2.566;2022-09-30T04:03:52;8.80;99.90
10492;DHT22;5293;51.464;-2.566;2022-09-30T04:06:23;8.70;99.90
10492;DHT22;5293;51.464;-2.566;2022-09-30T04:08:49;8.70;99.90
10492;DHT22;5293;51.464;-2.566;2022-09-30T04:11:16;8.70;99.90
10492;DHT22;5293;51.464;-2.566;2022-09-30T04:13:42;8.80;99.90
10492;DHT22;5293;51.464;-2.566;2022-09-30T04:16:08;8.70;99.90
10492;DHT22;5293;51.464;-2.566;2022-09-30T04:18:35;8.70;99.90
10492;DHT22;5293;51.464;-2.566;2022-09-30T04:21:05;8.60;99.90
10492;DHT22;5293;51.464;-2.566;2022-09-30T04:23:33;8.60;99.90
10492;DHT22;5293;51.464;-2.566;2022-09-30T04:25:59;8.60;99.90
10492;DHT22;5293;51.464;-2.566;2022-09-30T04:28:25;8.60;99.90
10492;DHT22;5293;51.464;-2.566;2022-09-30T04:30:51;8.60;99.90
10492;DHT22;5293;51.464;-2.566;2022-09-30T04:33:16;8.60;99.90
10492;DHT22;5293;51.464;-2.566;2022-09-30T04:35:42;8.60;99.90
10492;DHT22;5293;51.464;-2.566;2022-09-30T04:38:07;8.60;99.90
10492;DHT22;5293;51.464;-2.566;2022-09-30T04:40:37;8.60;99.90
10492;DHT22;5293;51.464;-2.566;2022-09-30T04:43:04;8.60;99.90
10492;DHT22;5293;51.464;-2.566;2022-09-30T04:45:30;8.50;99.90
10492;DHT22;5293;51.464;-2.566;2022-09-30T04:47:56;8.50;99.90
10492;DHT22;5293;51.464;-2.566;2022-09-30T04:50:22;8.50;99.90
10492;DHT22;5293;51.464;-2.566;2022-09-30T04:52:47;8.50;99.90
10492;DHT22;5293;51.464;-2.566;2022-09-30T04:55:13;8.40;99.90
10492;DHT22;5293;51.464;-2.566;2022-09-30T04:57:42;8.40;99.90
10492;DHT22;5293;51.464;-2.566;2022-09-30T05:00:08;8.40;99.90
10492;DHT22;5293;51.464;-2.566;2022-09-30T05:02:34;8.40;99.90
10492;DHT22;5293;51.464;-2.566;2022-09-30T05:05:00;8.30;99.90
10492;DHT22;5293;51.464;-2.566;2022-09-30T05:07:26;8.40;99.90
10492;DHT22;5293;51.464;-2.566;2022-09-30T05:09:51;8.40;99.90
10492;DHT22;5293;51.464;-2.566;2022-09-30T05:12:17;8.40;99.90
10492;DHT22;5293;51.464;-2.566;2022-09-30T05:14:43;8.40;99.90
10492;DHT22;5293;51.464;-2.566;2022-09-30T05:17:09;8.30;99.90
10492;DHT22;5293;51.464;-2.566;2022-09-30T05:19:34;8.40;99.90
10492;DHT22;5293;51.464;-2.566;2022-09-30T05:22:00;8.40;99.90
10492;DHT22;5293;51.464;-2.566;2022-09-30T05:24:26;8.50;99.90
10492;DHT22;5293;51.464;-2.566;2022-09-30T05:26:51;8.40;99.90
10492;DHT22;5293;51.464;-2.566;2022-09-30T05:29:17;8.50;99.90
10492;DHT22;5293;51.464;-2.566;2022-09-30T05:31:43;8.40;99.90
10492;DHT22;5293;51.464;-2.566;2022-09-30T05:34:08;8.40;99.90
10492;DHT22;5293;51.464;-2.566;2022-09-30T05:36:35;8.40;99.90
10492;DHT22;5293;51.464;-2.566;2022-09-30T05:39:00;8.40;99.90
10492;DHT22;5293;51.464;-2.566;2022-09-30T05:41:26;8.30;99.90
10492;DHT22;5293;51.464;-2.566;2022-09-30T05:43:52;8.40;99.90
10492;DHT22;5293;51.464;-2.566;2022-09-30T05:46:19;8.40;99.90
10492;DHT22;5293;51.464;-2.566;2022-09-30T05:48:45;8.50;99.90
10492;DHT22;5293;51.464;-2.566;2022-09-30T05:51:11;8.50;99.90
10492;DHT22;5293;51.464;-2.566;2022-09-30T05:53:38;8.50;99.90
10492;DHT22;5293;51.464;-2.566;2022-09-30T05:56:08;8.60;99.90
10492;DHT22;5293;51.464;-2.566;2022-09-30T05:58:35;8.60;99.90
10492;DHT22;5293;51.464;-2.566;2022-09-30T06:01:05;8.60;99.90
10492;DHT22;5293;51.464;-2.566;2022-09-30T06:03:31;8.70;99.90
10492;DHT22;5293;51.464;-2.566;2022-09-30T06:05:57;8.60;99.90
10492;DHT22;5293;51.464;-2.566;2022-09-30T06:08:23;8.70;99.90
10492;DHT22;5293;51.464;-2.566;2022-09-30T06:10:49;8.70;99.90
10492;DHT22;5293;51.464;-2.566;2022-09-30T06:13:15;8.80;99.90
10492;DHT22;5293;51.464;-2.566;2022-09-30T06:15:42;8.80;99.90
10492;DHT22;5293;51.464;-2.566;2022-09-30T06:18:08;8.80;99.90
10492;DHT22;5293;51.464;-2.566;2022-09-30T06:20:35;8.80;99.90
10492;DHT22;5293;51.464;-2.566;2022-09-30T06:23:01;8.80;99.90
10492;DHT22;5293;51.464;-2.566;2022-09-30T06:25:28;8.90;99.90
10492;DHT22;5293;51.464;-2.566;2022-09-30T06:27:54;9.00;99.90
10492;DHT22;5293;51.464;-2.566;2022-09-30T06:30:20;9.00;99.90
10492;DHT22;5293;51.464;-2.566;2022-09-30T06:32:46;8.90;99.90
10492;DHT22;5293;51.464;-2.566;2022-09-30T06:35:12;9.00;99.90
10492;DHT22;5293;51.464;-2.566;2022-09-30T06:37:38;9.00;99.90
10492;DHT22;5293;51.464;-2.566;2022-09-30T06:40:05;9.10;99.90
10492;DHT22;5293;51.464;-2.566;2022-09-30T06:42:31;9.10;99.90
10492;DHT22;5293;51.464;-2.566;2022-09-30T06:44:56;9.20;99.90
10492;DHT22;5293;51.464;-2.566;2022-09-30T06:47:22;9.20;99.90
10492;DHT22;5293;51.464;-2.566;2022-09-30T06:49:49;9.20;99.90
10492;DHT22;5293;51.464;-2.566;2022-09-30T06:52:17;9.30;99.90
10492;DHT22;5293;51.464;-2.566;2022-09-30T06:54:44;9.30;99.90
10492;DHT22;5293;51.464;-2.566;2022-09-30T06:57:12;9.40;99.90
10492;DHT22;5293;51.464;-2.566;2022-09-30T06:59:37;9.50;99.90
10492;DHT22;5293;51.464;-2.566;2022-09-30T07:02:03;9.60;99.90
10492;DHT22;5293;51.464;-2.566;2022-09-30T07:04:29;9.70;99.90
10492;DHT22;5293;51.464;-2.566;2022-09-30T07:06:55;9.70;99.90
10492;DHT22;5293;51.464;-2.566;2022-09-30T07:09:20;9.80;99.90
10492;DHT22;5293;51.464;-2.566;2022-09-30T07:11:46;9.90;99.90
10492;DHT22;5293;51.464;-2.566;2022-09-30T07:14:13;9.90;99.90
10492;DHT22;5293;51.464;-2.566;2022-09-30T07:16:38;10.00;99.90
10492;DHT22;5293;51.464;-2.566;2022-09-30T07:19:05;10.00;99.90
10492;DHT22;5293;51.464;-2.566;2022-09-30T07:21:31;10.10;99.90
10492;DHT22;5293;51.464;-2.566;2022-09-30T07:23:57;10.10;99.90
10492;DHT22;5293;51.464;-2.566;2022-09-30T07:26:25;10.20;99.90
10492;DHT22;5293;51.464;-2.566;2022-09-30T07:28:51;10.30;99.90
10492;DHT22;5293;51.464;-2.566;2022-09-30T07:31:20;10.30;99.90
10492;DHT22;5293;51.464;-2.566;2022-09-30T07:33:47;10.30;99.90
10492;DHT22;5293;51.464;-2.566;2022-09-30T07:36:15;10.30;99.90
10492;DHT22;5293;51.464;-2.566;2022-09-30T07:38:43;10.40;99.90
10492;DHT22;5293;51.464;-2.566;2022-09-30T07:41:11;10.40;99.90
10492;DHT22;5293;51.464;-2.566;2022-09-30T07:43:38;10.50;99.90
10492;DHT22;5293;51.464;-2.566;2022-09-30T07:48:31;10.60;99.90
10492;DHT22;5293;51.464;-2.566;2022-09-30T07:51:02;10.70;99.90
10492;DHT22;5293;51.464;-2.566;2022-09-30T07:53:28;10.80;99.90
10492;DHT22;5293;51.464;-2.566;2022-09-30T07:55:54;10.90;99.90
10492;DHT22;5293;51.464;-2.566;2022-09-30T07:58:19;11.00;99.90
10492;DHT22;5293;51.464;-2.566;2022-09-30T08:00:48;11.20;99.90
10492;DHT22;5293;51.464;-2.566;2022-09-30T08:03:16;11.30;99.90
10492;DHT22;5293;51.464;-2.566;2022-09-30T08:05:42;11.50;99.90
10492;DHT22;5293;51.464;-2.566;2022-09-30T08:08:13;11.60;99.90
10492;DHT22;5293;51.464;-2.566;2022-09-30T08:10:40;11.70;99.90
10492;DHT22;5293;51.464;-2.566;2022-09-30T08:13:06;11.80;99.90
10492;DHT22;5293;51.464;-2.566;2022-09-30T08:15:32;11.90;99.90
10492;DHT22;5293;51.464;-2.566;2022-09-30T08:17:57;11.90;99.90
10492;DHT22;5293;51.464;-2.566;2022-09-30T08:20:23;12.00;99.90
10492;DHT22;5293;51.464;-2.566;2022-09-30T08:22:58;12.00;99.90
10492;DHT22;5293;51.464;-2.566;2022-09-30T08:25:24;12.00;99.90
10492;DHT22;5293;51.464;-2.566;2022-09-30T08:27:50;12.10;99.90
10492;DHT22;5293;51.464;-2.566;2022-09-30T08:30:16;12.10;99.90
10492;DHT22;5293;51.464;-2.566;2022-09-30T08:32:42;12.10;99.90
10492;DHT22;5293;51.464;-2.566;2022-09-30T08:35:08;12.20;99.90
10492;DHT22;5293;51.464;-2.566;2022-09-30T08:37:33;12.30;99.90
10492;DHT22;5293;51.464;-2.566;2022-09-30T08:39:59;12.40;99.90
10492;DHT22;5293;51.464;-2.566;2022-09-30T08:47:52;12.60;99.90
10492;DHT22;5293;51.464;-2.566;2022-09-30T08:53:01;12.70;99.90
10492;DHT22;5293;51.464;-2.566;2022-09-30T08:55:46;12.70;99.90
10492;DHT22;5293;51.464;-2.566;2022-09-30T08:58:27;12.80;99.90
10492;DHT22;5293;51.464;-2.566;2022-09-30T09:01:12;12.90;99.90
10492;DHT22;5293;51.464;-2.566;2022-09-30T09:03:40;12.80;99.90
10492;DHT22;5293;51.464;-2.566;2022-09-30T09:14:06;12.90;99.90
10492;DHT22;5293;51.464;-2.566;2022-09-30T09:19:39;13.00;99.90
10492;DHT22;5293;51.464;-2.566;2022-09-30T09:22:08;13.00;99.90
10492;DHT22;5293;51.464;-2.566;2022-09-30T09:24:44;13.10;99.90
10492;DHT22;5293;51.464;-2.566;2022-09-30T09:27:28;13.10;99.90
10492;DHT22;5293;51.464;-2.566;2022-09-30T09:30:21;13.20;99.90
10492;DHT22;5293;51.464;-2.566;2022-09-30T09:33:00;13.30;99.90
10492;DHT22;5293;51.464;-2.566;2022-09-30T09:47:18;13.80;99.90
10492;DHT22;5293;51.464;-2.566;2022-09-30T09:49:31;14.00;99.90
10492;DHT22;5293;51.464;-2.566;2022-09-30T09:54:46;14.10;99.90
10492;DHT22;5293;51.464;-2.566;2022-09-30T09:57:18;14.20;99.90
10492;DHT22;5293;51.464;-2.566;2022-09-30T09:59:54;14.20;99.90
10492;DHT22;5293;51.464;-2.566;2022-09-30T10:02:27;14.30;99.90
10492;DHT22;5293;51.464;-2.566;2022-09-30T10:04:53;14.30;99.90
10492;DHT22;5293;51.464;-2.566;2022-09-30T10:07:27;14.20;99.90
10492;DHT22;5293;51.464;-2.566;2022-09-30T10:12:31;14.40;99.90
10492;DHT22;5293;51.464;-2.566;2022-09-30T10:14:59;14.30;99.90
10492;DHT22;5293;51.464;-2.566;2022-09-30T10:17:33;14.30;99.90
10492;DHT22;5293;51.464;-2.566;2022-09-30T10:22:41;14.10;99.90
10492;DHT22;5293;51.464;-2.566;2022-09-30T10:30:58;14.30;99.90
10492;DHT22;5293;51.464;-2.566;2022-09-30T10:33:36;14.40;99.90
10492;DHT22;5293;51.464;-2.566;2022-09-30T10:36:18;14.30;99.90
10492;DHT22;5293;51.464;-2.566;2022-09-30T10:38:48;14.40;99.90
10492;DHT22;5293;51.464;-2.566;2022-09-30T10:41:21;14.40;99.90
10492;DHT22;5293;51.464;-2.566;2022-09-30T10:43:51;14.40;99.90
10492;DHT22;5293;51.464;-2.566;2022-09-30T10:46:23;14.60;99.90
10492;DHT22;5293;51.464;-2.566;2022-09-30T10:48:51;14.60;99.90
10492;DHT22;5293;51.464;-2.566;2022-09-30T10:51:25;14.70;99.90
10492;DHT22;5293;51.464;-2.566;2022-09-30T10:53:51;14.80;99.90
10492;DHT22;5293;51.464;-2.566;2022-09-30T10:56:38;14.90;99.90
10492;DHT22;5293;51.464;-2.566;2022-09-30T10:59:11;15.00;99.90
10492;DHT22;5293;51.464;-2.566;2022-09-30T11:01:47;15.10;99.90
10492;DHT22;5293;51.464;-2.566;2022-09-30T11:07:40;15.30;99.90
10492;DHT22;5293;51.464;-2.566;2022-09-30T11:10:33;15.40;99.90
10492;DHT22;5293;51.464;-2.566;2022-09-30T11:13:26;15.30;99.90
10492;DHT22;5293;51.464;-2.566;2022-09-30T11:16:11;15.40;99.90
10492;DHT22;5293;51.464;-2.566;2022-09-30T11:19:00;15.40;99.90
10492;DHT22;5293;51.464;-2.566;2022-09-30T11:30:09;15.30;99.90
10492;DHT22;5293;51.464;-2.566;2022-09-30T11:35:58;15.20;99.90
10492;DHT22;5293;51.464;-2.566;2022-09-30T11:41:08;15.20;99.90
10492;DHT22;5293;51.464;-2.566;2022-09-30T11:43:53;15.20;99.90
10492;DHT22;5293;51.464;-2.566;2022-09-30T11:51:41;15.00;99.90
10492;DHT22;5293;51.464;-2.566;2022-09-30T11:54:18;14.80;99.90
10492;DHT22;5293;51.464;-2.566;2022-09-30T12:01:48;14.80;99.90
10492;DHT22;5293;51.464;-2.566;2022-09-30T12:04:23;14.90;99.90
10492;DHT22;5293;51.464;-2.566;2022-09-30T12:06:58;14.90;99.90
10492;DHT22;5293;51.464;-2.566;2022-09-30T12:09:27;14.70;99.90
10492;DHT22;5293;51.464;-2.566;2022-09-30T12:12:01;14.70;99.90
10492;DHT22;5293;51.464;-2.566;2022-09-30T12:14:32;14.70;99.90
10492;DHT22;5293;51.464;-2.566;2022-09-30T12:17:01;14.60;99.90
10492;DHT22;5293;51.464;-2.566;2022-09-30T12:19:33;14.60;99.90
10492;DHT22;5293;51.464;-2.566;2022-09-30T12:22:13;14.60;99.90
10492;DHT22;5293;51.464;-2.566;2022-09-30T12:24:42;14.50;99.90
10492;DHT22;5293;51.464;-2.566;2022-09-30T12:27:24;14.50;99.90
10492;DHT22;5293;51.464;-2.566;2022-09-30T12:30:15;14.40;99.90
10492;DHT22;5293;51.464;-2.566;2022-09-30T12:35:52;14.40;99.90
10492;DHT22;5293;51.464;-2.566;2022-09-30T12:49:47;14.30;99.90
10492;DHT22;5293;51.464;-2.566;2022-09-30T12:52:17;14.30;99.90
10492;DHT22;5293;51.464;-2.566;2022-09-30T12:55:30;14.30;99.90
10492;DHT22;5293;51.464;-2.566;2022-09-30T12:57:39;14.30;99.90
10492;DHT22;5293;51.464;-2.566;2022-09-30T13:00:17;14.30;99.90
10492;DHT22;5293;51.464;-2.566;2022-09-30T13:02:47;14.30;99.90
10492;DHT22;5293;51.464;-2.566;2022-09-30T13:05:45;14.30;99.90
10492;DHT22;5293;51.464;-2.566;2022-09-30T13:10:44;14.30;99.90
10492;DHT22;5293;51.464;-2.566;2022-09-30T13:28:48;14.30;99.90
10492;DHT22;5293;51.464;-2.566;2022-09-30T13:31:19;14.30;99.90
10492;DHT22;5293;51.464;-2.566;2022-09-30T13:47:25;14.30;99.90
10492;DHT22;5293;51.464;-2.566;2022-09-30T13:50:05;14.30;99.90
10492;DHT22;5293;51.464;-2.566;2022-09-30T13:52:38;14.20;99.90
10492;DHT22;5293;51.464;-2.566;2022-09-30T13:55:34;14.20;99.90
10492;DHT22;5293;51.464;-2.566;2022-09-30T13:58:04;14.20;99.90
10492;DHT22;5293;51.464;-2.566;2022-09-30T14:11:42;14.00;99.90
10492;DHT22;5293;51.464;-2.566;2022-09-30T14:22:39;14.00;99.90
10492;DHT22;5293;51.464;-2.566;2022-09-30T14:25:17;14.00;99.90
10492;DHT22;5293;51.464;-2.566;2022-09-30T14:28:04;14.00;99.90
10492;DHT22;5293;51.464;-2.566;2022-09-30T14:30:40;14.10;99.90
10492;DHT22;5293;51.464;-2.566;2022-09-30T14:33:25;14.10;99.90
10492;DHT22;5293;51.464;-2.566;2022-09-30T14:35:53;14.10;99.90
10492;DHT22;5293;51.464;-2.566;2022-09-30T14:38:24;14.20;99.90
10492;DHT22;5293;51.464;-2.566;2022-09-30T14:40:54;14.20;99.90
10492;DHT22;5293;51.464;-2.566;2022-09-30T14:43:31;14.20;99.90
10492;DHT22;5293;51.464;-2.566;2022-09-30T14:46:47;14.20;99.90
10492;DHT22;5293;51.464;-2.566;2022-09-30T14:48:49;14.20;99.90
10492;DHT22;5293;51.464;-2.566;2022-09-30T14:51:17;14.30;99.90
10492;DHT22;5293;51.464;-2.566;2022-09-30T14:53:57;14.20;99.90
10492;DHT22;5293;51.464;-2.566;2022-09-30T14:56:30;14.30;99.90
10492;DHT22;5293;51.464;-2.566;2022-09-30T14:58:58;14.30;99.90
10492;DHT22;5293;51.464;-2.566;2022-09-30T15:01:31;14.30;99.90
10492;DHT22;5293;51.464;-2.566;2022-09-30T15:04:03;14.30;99.90
10492;DHT22;5293;51.464;-2.566;2022-09-30T15:06:32;14.30;99.90
10492;DHT22;5293;51.464;-2.566;2022-09-30T15:11:43;14.30;99.90
10492;DHT22;5293;51.464;-2.566;2022-09-30T15:14:44;14.40;99.90
10492;DHT22;5293;51.464;-2.566;2022-09-30T15:17:20;14.30;99.90
10492;DHT22;5293;51.464;-2.566;2022-09-30T15:19:46;14.40;99.90
10492;DHT22;5293;51.464;-2.566;2022-09-30T15:22:15;14.40;99.90
10492;DHT22;5293;51.464;-2.566;2022-09-30T15:24:42;14.40;99.90
10492;DHT22;5293;51.464;-2.566;2022-09-30T15:27:27;14.40;99.90
10492;DHT22;5293;51.464;-2.566;2022-09-30T15:30:23;14.40;99.90
10492;DHT22;5293;51.464;-2.566;2022-09-30T15:32:47;14.40;99.90
10492;DHT22;5293;51.464;-2.566;2022-09-30T15:35:18;15.10;99.90
10492;DHT22;5293;51.464;-2.566;2022-09-30T15:37:46;14.50;99.90
10492;DHT22;5293;51.464;-2.566;2022-09-30T15:40:16;14.50;99.90
10492;DHT22;5293;51.464;-2.566;2022-09-30T15:43:04;14.50;99.90
10492;DHT22;5293;51.464;-2.566;2022-09-30T15:45:41;14.60;99.90
10492;DHT22;5293;51.464;-2.566;2022-09-30T15:50:55;14.60;99.90
10492;DHT22;5293;51.464;-2.566;2022-09-30T15:59:10;14.70;99.90
10492;DHT22;5293;51.464;-2.566;2022-09-30T16:01:41;14.70;99.90
10492;DHT22;5293;51.464;-2.566;2022-09-30T16:04:23;14.70;99.90
10492;DHT22;5293;51.464;-2.566;2022-09-30T16:06:57;14.80;99.90
10492;DHT22;5293;51.464;-2.566;2022-09-30T16:09:36;14.80;99.90
10492;DHT22;5293;51.464;-2.566;2022-09-30T16:14:44;14.80;99.90
10492;DHT22;5293;51.464;-2.566;2022-09-30T16:17:28;14.80;99.90
10492;DHT22;5293;51.464;-2.566;2022-09-30T16:19:57;14.90;99.90
10492;DHT22;5293;51.464;-2.566;2022-09-30T16:27:36;14.90;99.90
10492;DHT22;5293;51.464;-2.566;2022-09-30T16:30:03;14.90;99.90
10492;DHT22;5293;51.464;-2.566;2022-09-30T16:32:30;14.90;99.90
10492;DHT22;5293;51.464;-2.566;2022-09-30T16:34:57;14.90;99.90
10492;DHT22;5293;51.464;-2.566;2022-09-30T16:37:23;14.90;99.90
10492;DHT22;5293;51.464;-2.566;2022-09-30T16:39:49;15.00;99.90
10492;DHT22;5293;51.464;-2.566;2022-09-30T16:42:16;14.90;99.90
10492;DHT22;5293;51.464;-2.566;2022-09-30T16:44:42;14.90;99.90
10492;DHT22;5293;51.464;-2.566;2022-09-30T16:47:17;14.90;99.90
10492;DHT22;5293;51.464;-2.566;2022-09-30T16:49:46;14.90;99.90
10492;DHT22;5293;51.464;-2.566;2022-09-30T16:52:12;14.90;99.90
10492;DHT22;5293;51.464;-2.566;2022-09-30T16:54:38;14.90;99.90
10492;DHT22;5293;51.464;-2.566;2022-09-30T16:57:04;14.90;99.90
10492;DHT22;5293;51.464;-2.566;2022-09-30T16:59:30;14.90;99.90
10492;DHT22;5293;51.464;-2.566;2022-09-30T17:01:59;15.00;99.90
10492;DHT22;5293;51.464;-2.566;2022-09-30T17:04:26;15.00;99.90
10492;DHT22;5293;51.464;-2.566;2022-09-30T17:06:52;15.00;99.90
10492;DHT22;5293;51.464;-2.566;2022-09-30T17:09:20;15.00;99.90
10492;DHT22;5293;51.464;-2.566;2022-09-30T17:11:46;15.00;99.90
10492;DHT22;5293;51.464;-2.566;2022-09-30T17:14:12;15.00;99.90
10492;DHT22;5293;51.464;-2.566;2022-09-30T17:16:39;15.00;99.90
10492;DHT22;5293;51.464;-2.566;2022-09-30T17:19:05;15.00;99.90
10492;DHT22;5293;51.464;-2.566;2022-09-30T17:21:31;15.00;99.90
10492;DHT22;5293;51.464;-2.566;2022-09-30T17:23:56;15.00;99.90
10492;DHT22;5293;51.464;-2.566;2022-09-30T17:26:23;15.10;99.90
10492;DHT22;5293;51.464;-2.566;2022-09-30T17:28:49;15.00;99.90
10492;DHT22;5293;51.464;-2.566;2022-09-30T17:31:14;15.00;99.90
10492;DHT22;5293;51.464;-2.566;2022-09-30T17:33:40;15.00;99.90
10492;DHT22;5293;51.464;-2.566;2022-09-30T17:36:09;15.00;99.90
10492;DHT22;5293;51.464;-2.566;2022-09-30T17:38:36;15.10;99.90
10492;DHT22;5293;51.464;-2.566;2022-09-30T17:41:03;15.00;99.90
10492;DHT22;5293;51.464;-2.566;2022-09-30T17:43:47;15.00;99.90
10492;DHT22;5293;51.464;-2.566;2022-09-30T17:46:14;15.00;99.90
10492;DHT22;5293;51.464;-2.566;2022-09-30T17:48:44;15.00;99.90
10492;DHT22;5293;51.464;-2.566;2022-09-30T17:51:11;15.10;99.90
10492;DHT22;5293;51.464;-2.566;2022-09-30T17:53:37;15.10;99.90
10492;DHT22;5293;51.464;-2.566;2022-09-30T17:56:05;15.10;99.90
10492;DHT22;5293;51.464;-2.566;2022-09-30T17:58:36;15.20;99.90
10492;DHT22;5293;51.464;-2.566;2022-09-30T18:01:06;15.20;99.90
10492;DHT22;5293;51.464;-2.566;2022-09-30T18:03:32;15.20;99.90
10492;DHT22;5293;51.464;-2.566;2022-09-30T18:05:59;15.20;99.90
10492;DHT22;5293;51.464;-2.566;2022-09-30T18:08:25;15.20;99.90
10492;DHT22;5293;51.464;-2.566;2022-09-30T18:10:51;15.20;99.90
10492;DHT22;5293;51.464;-2.566;2022-09-30T18:13:17;15.20;99.90
10492;DHT22;5293;51.464;-2.566;2022-09-30T18:15:44;15.20;99.90
10492;DHT22;5293;51.464;-2.566;2022-09-30T18:18:10;15.20;99.90
10492;DHT22;5293;51.464;-2.566;2022-09-30T18:20:41;15.20;99.90
10492;DHT22;5293;51.464;-2.566;2022-09-30T18:23:09;15.20;99.90
10492;DHT22;5293;51.464;-2.566;2022-09-30T18:25:35;15.10;99.90
10492;DHT22;5293;51.464;-2.566;2022-09-30T18:28:01;15.20;99.90
10492;DHT22;5293;51.464;-2.566;2022-09-30T18:30:27;15.20;99.90
10492;DHT22;5293;51.464;-2.566;2022-09-30T18:32:53;15.20;99.90
10492;DHT22;5293;51.464;-2.566;2022-09-30T18:35:22;15.20;99.90
10492;DHT22;5293;51.464;-2.566;2022-09-30T18:37:49;15.20;99.90
10492;DHT22;5293;51.464;-2.566;2022-09-30T18:40:17;15.20;99.90
10492;DHT22;5293;51.464;-2.566;2022-09-30T18:42:43;15.20;99.90
10492;DHT22;5293;51.464;-2.566;2022-09-30T18:45:10;15.30;99.90
10492;DHT22;5293;51.464;-2.566;2022-09-30T18:47:41;15.30;99.90
10492;DHT22;5293;51.464;-2.566;2022-09-30T18:50:12;15.30;99.90
10492;DHT22;5293;51.464;-2.566;2022-09-30T18:52:38;15.30;99.90
10492;DHT22;5293;51.464;-2.566;2022-09-30T18:55:05;15.40;99.90
10492;DHT22;5293;51.464;-2.566;2022-09-30T18:57:32;15.40;99.90
10492;DHT22;5293;51.464;-2.566;2022-09-30T18:59:59;15.50;99.90
10492;DHT22;5293;51.464;-2.566;2022-09-30T19:02:26;15.50;99.90
10492;DHT22;5293;51.464;-2.566;2022-09-30T19:04:52;15.60;99.90
10492;DHT22;5293;51.464;-2.566;2022-09-30T19:07:21;15.60;99.90
10492;DHT22;5293;51.464;-2.566;2022-09-30T19:09:48;15.70;99.90
10492;DHT22;5293;51.464;-2.566;2022-09-30T19:12:14;15.70;99.90
10492;DHT22;5293;51.464;-2.566;2022-09-30T19:14:42;15.70;99.90
10492;DHT22;5293;51.464;-2.566;2022-09-30T19:17:10;15.70;99.90
10492;DHT22;5293;51.464;-2.566;2022-09-30T19:19:36;15.70;99.90
10492;DHT22;5293;51.464;-2.566;2022-09-30T19:22:09;15.70;99.90
10492;DHT22;5293;51.464;-2.566;2022-09-30T19:24:35;15.70;99.90
10492;DHT22;5293;51.464;-2.566;2022-09-30T19:27:03;15.70;99.90
10492;DHT22;5293;51.464;-2.566;2022-09-30T19:29:29;15.70;99.90
10492;DHT22;5293;51.464;-2.566;2022-09-30T19:31:55;15.70;99.90